Historyczne dane pomiarowe

Dodano dane terminowe – wersja testowa.

Dane z okresu 1951-2019

Wersja bazy: 1.34 [2019-03-16, lista zmian], aktualizacja planowana na 2019-04-15

Dane meteo z obszaru Polski uzyskane na podstawie danych udostępnionych przez Instytut Meteorologii i Gospodarki Wodnej – Państwowy Instytut Badawczy.

 

Wybierz Datę:    

       

TemperaturaWilgotnośćWiatrCiśnienieOpadyŚniegCzas trwania zjawisk
 Stacja t tx tn tng RH VA  wxwx mslp ppp RRR   cm mm wxwxwxwxwxwxwx
1995-09-11 15.5 23.5 8.9 5.5-------- 0.0--- 0.0--------
1995-09-12 16.9 22.8 13.6 9.2-------- 0.0--- 0.0--------
1995-09-13 17.2 24.5 10.5 7.0-------- 0.0--- 0.0--------
1995-09-14 18.0 19.8 15.8 14.1-------- 0.7--- 0.0--------
1995-09-15 14.7 16.9 12.7 11.5-------- 2.7--- 0.0--------
1995-09-16 14.3 17.7 11.6 10.9-------- 0.0--- 0.0--------
1995-09-17 12.8 21.8 5.9 3.8-------- 0.0--- 0.0--------
1995-09-18 14.1 18.0 10.4 6.2-------- 0.0--- 0.0--------
1995-09-19 11.4 14.7 6.6 3.2-------- 4.4--- 0.0--------
1995-09-20 10.9 11.9 9.7 9.7-------- 7.1--- 0.0--------
1995-09-21 12.6 17.2 10.8 6.2-------- 0.0--- 0.0--------
1995-09-22 10.2 18.5 2.2 -0.1-------- 0.0--- 0.0--------
1995-09-23 14.2 17.5 11.5 7.5-------- 0.0--- 0.0--------
1995-09-24 14.5 19.1 10.4 7.5-------- 1.0--- 0.0--------
1995-09-25 14.6 20.5 9.1 4.9-------- 0.0--- 0.0--------
1995-09-26 13.9 17.4 11.1 6.2-------- 8.4--- 0.0--------
1995-09-27 12.2 13.7 11.6 10.5-------- 13.0--- 0.0--------
1995-09-28 9.4 13.6 5.9 5.1-------- 2.5--- 0.0--------
1995-09-29 6.9 11.7 3.7 1.9-------- 0.7--- 0.0--------
1995-09-30 7.3 11.9 4.7 2.3-------- 1.0--- 0.0--------
1995-10-01 6.9 12.9 3.7 2.0-------- 2.2--- 0.0--------
1995-10-02 11.2 17.5 7.5 3.7-------- 0.0--- 0.0--------
1995-10-03 12.6 21.8 4.9 1.3-------- 0.0--- 0.0--------
1995-10-04 16.2 22.4 11.9 10.0-------- 0.0--- 0.0--------
1995-10-05 17.0 23.4 12.5 8.4-------- 0.0--- 0.0--------
1995-10-06 14.9 18.5 11.7 8.0-------- 0.0--- 0.0--------
1995-10-07 16.0 22.2 10.9 7.4-------- 0.0--- 0.0--------
1995-10-08 17.2 20.8 14.5 12.0-------- 0.0--- 0.0--------
1995-10-09 14.8 24.7 8.8 5.7-------- 0.0--- 0.0--------
1995-10-10 15.7 25.4 8.9 5.8-------- 0.0--- 0.0--------
153.4 ms

 

Źródłem pochodzenia danych jest Instytut Meteorologii i Gospodarki Wodnej – Państwowy Instytut Badawczy. Dane Instytutu Meteorologii i Gospodarki Wodnej – Państwowego Instytutu Badawczego zostały przetworzone.

Dane źródłowe można odnaleźć na stronie https://dane.imgw.pl